Time;durP1;ratioP1;P1;durP2;ratioP2;P2;SDS_P1;SDS_P2;PMS_P1;PMS_P2;Temp;Humidity;BMP_temperature;BMP_pressure;BME280_temperature;BME280_humidity;BME280_pressure;Samples;Min_cycle;Max_cycle;Signal;HPM_P1;HPM_P2
2022/12/29 00:02:04;;;;;;;13.35;9.15;;;9.00;99.90;;;;;;5047334;28;20049;-45
2022/12/29 00:04:30;;;;;;;11.82;9.20;;;8.90;99.90;;;;;;5047157;28;20068;-46
2022/12/29 00:06:56;;;;;;;11.85;8.65;;;9.00;99.90;;;;;;5046977;28;20080;-46
2022/12/29 00:09:22;;;;;;;12.40;9.02;;;9.00;99.90;;;;;;5046736;28;20136;-46
2022/12/29 00:11:49;;;;;;;12.05;9.60;;;9.00;99.90;;;;;;5045775;28;20417;-45
2022/12/29 00:17:00;;;;;;;13.93;9.48;;;9.00;99.90;;;;;;5046154;28;20457;-46
2022/12/29 00:36:17;;;;;;;14.88;10.88;;;9.10;99.90;;;;;;5045173;28;20536;-48
2022/12/29 00:44:18;;;;;;;13.32;9.40;;;9.10;99.90;;;;;;5047270;28;20056;-45
2022/12/29 00:46:44;;;;;;;14.27;10.35;;;9.10;99.90;;;;;;5047512;28;20037;-46
2022/12/29 00:49:30;;;;;;;15.18;10.45;;;9.10;99.90;;;;;;5047610;28;20206;-46
2022/12/29 00:51:59;;;;;;;12.93;9.45;;;9.10;99.90;;;;;;5046171;28;20044;-46
2022/12/29 00:54:25;;;;;;;16.50;9.75;;;9.10;99.90;;;;;;5047337;28;20048;-45
2022/12/29 00:56:51;;;;;;;13.98;9.80;;;9.20;99.90;;;;;;5047491;28;20045;-45
2022/12/29 00:59:18;;;;;;;14.05;9.70;;;9.10;99.90;;;;;;5047343;28;20033;-46
2022/12/29 01:01:44;;;;;;;13.32;8.90;;;9.20;99.90;;;;;;5047060;28;20045;-46
2022/12/29 01:04:11;;;;;;;14.30;8.55;;;9.10;99.90;;;;;;5047105;28;20051;-46
2022/12/29 01:06:40;;;;;;;13.02;9.10;;;9.20;99.90;;;;;;5047066;28;20045;-46
2022/12/29 01:11:51;;;;;;;15.50;9.55;;;9.20;99.90;;;;;;5047182;28;20111;-45
2022/12/29 01:14:18;;;;;;;12.95;8.40;;;9.30;99.90;;;;;;5046352;28;20048;-47
2022/12/29 01:16:44;;;;;;;14.90;8.35;;;9.20;99.90;;;;;;5046894;28;20384;-48
2022/12/29 01:19:10;;;;;;;12.77;8.40;;;9.10;99.90;;;;;;5047155;28;20091;-46
2022/12/29 01:21:35;;;;;;;9.98;7.90;;;9.10;99.90;;;;;;5046631;28;20048;-46
2022/12/29 01:24:01;;;;;;;10.95;8.13;;;9.20;99.90;;;;;;5046502;28;20110;-47
2022/12/29 01:26:27;;;;;;;11.35;7.55;;;9.10;99.90;;;;;;5046266;28;20056;-49
2022/12/29 01:28:53;;;;;;;12.10;7.82;;;9.10;99.90;;;;;;5046328;28;20102;-45
2022/12/29 01:31:18;;;;;;;15.77;8.02;;;9.10;99.90;;;;;;5046432;28;20069;-49
2022/12/29 01:33:44;;;;;;;10.13;7.40;;;9.40;99.90;;;;;;5045933;28;20040;-47
2022/12/29 01:36:14;;;;;;;11.00;7.35;;;9.00;99.90;;;;;;5046087;28;20045;-46
2022/12/29 01:38:41;;;;;;;9.43;6.68;;;9.00;99.90;;;;;;5046230;28;20045;-46
2022/12/29 01:41:08;;;;;;;9.25;6.97;;;9.00;99.90;;;;;;5046401;28;20134;-46
2022/12/29 01:43:47;;;;;;;8.25;5.72;;;9.10;99.90;;;;;;5046666;28;20052;-46
2022/12/29 01:46:39;;;;;;;10.07;5.88;;;9.10;99.90;;;;;;5046234;28;20653;-47
2022/12/29 01:49:11;;;;;;;10.35;5.90;;;9.10;99.90;;;;;;5046462;28;20067;-46
2022/12/29 01:52:12;;;;;;;8.90;5.78;;;9.10;99.90;;;;;;5046271;28;20403;-47
2022/12/29 01:54:49;;;;;;;8.18;5.72;;;9.10;99.90;;;;;;5006846;28;20045;-47
2022/12/29 01:57:20;;;;;;;8.05;5.63;;;9.20;99.90;;;;;;5044491;28;20115;-46
2022/12/29 02:00:08;;;;;;;8.15;5.60;;;9.50;99.90;;;;;;5049971;28;20049;-46
2022/12/29 02:02:34;;;;;;;10.95;6.18;;;9.20;99.90;;;;;;5050011;28;20151;-46
2022/12/29 02:05:06;;;;;;;7.65;5.90;;;9.20;99.90;;;;;;5050196;28;20741;-45
2022/12/29 02:07:32;;;;;;;7.43;5.35;;;9.20;99.90;;;;;;5049958;28;20486;-45
2022/12/29 02:10:00;;;;;;;10.68;6.00;;;9.20;99.90;;;;;;5048799;28;20134;-45
2022/12/29 02:12:26;;;;;;;8.60;5.75;;;9.10;99.90;;;;;;5049986;28;20045;-46
2022/12/29 02:14:57;;;;;;;9.07;5.40;;;9.20;99.90;;;;;;5049525;28;20055;-46
2022/12/29 02:17:44;;;;;;;11.05;5.00;;;9.20;99.90;;;;;;5048876;28;20052;-45
2022/12/29 02:20:15;;;;;;;8.18;5.43;;;9.20;99.90;;;;;;5050309;28;20049;-46
2022/12/29 02:22:53;;;;;;;7.80;5.10;;;9.20;99.90;;;;;;5049971;28;20041;-45
2022/12/29 02:26:00;;;;;;;8.70;4.88;;;9.30;99.90;;;;;;5050231;28;20052;-46
2022/12/29 02:28:47;;;;;;;6.72;4.40;;;9.30;99.90;;;;;;5030238;28;20080;-46
2022/12/29 02:31:33;;;;;;;5.53;4.18;;;9.20;99.90;;;;;;5050129;28;20045;-45
2022/12/29 02:34:37;;;;;;;6.68;4.57;;;9.20;99.90;;;;;;5048884;28;20045;-46
2022/12/29 02:37:17;;;;;;;5.40;4.22;;;9.30;99.90;;;;;;5049256;28;20098;-46
2022/12/29 02:40:20;;;;;;;5.78;4.57;;;9.30;99.90;;;;;;5049543;28;20048;-47
2022/12/29 02:43:08;;;;;;;6.05;4.22;;;9.30;99.90;;;;;;5049559;28;20144;-47
2022/12/29 02:45:42;;;;;;;7.15;4.40;;;9.30;99.90;;;;;;5049438;28;20045;-46
2022/12/29 02:48:12;;;;;;;6.97;4.50;;;9.50;99.90;;;;;;5049460;28;20037;-49
2022/12/29 02:50:43;;;;;;;7.38;4.55;;;9.70;99.90;;;;;;5049194;28;20036;-48
2022/12/29 02:53:12;;;;;;;8.65;4.60;;;9.30;99.90;;;;;;5049446;28;20071;-47
2022/12/29 02:55:38;;;;;;;9.73;4.78;;;9.20;99.90;;;;;;5049467;28;20041;-46
2022/12/29 02:58:20;;;;;;;8.13;4.40;;;9.30;99.90;;;;;;5048901;28;20068;-45
2022/12/29 03:01:10;;;;;;;7.38;4.40;;;9.40;99.90;;;;;;5048983;28;20080;-47
2022/12/29 03:03:47;;;;;;;6.63;3.92;;;9.30;99.90;;;;;;5049250;28;20060;-47
2022/12/29 03:06:27;;;;;;;6.20;3.70;;;9.30;99.90;;;;;;5049227;28;20055;-50
2022/12/29 03:09:42;;;;;;;6.13;3.65;;;9.30;99.90;;;;;;5049189;28;20029;-46
2022/12/29 03:18:21;;;;;;;5.78;3.20;;;9.30;99.90;;;;;;5048621;28;20083;-46
2022/12/29 03:21:00;;;;;;;5.55;3.35;;;9.30;99.90;;;;;;5048538;28;20495;-48
2022/12/29 03:23:27;;;;;;;5.50;3.15;;;9.30;99.90;;;;;;5049046;28;20088;-45
2022/12/29 03:25:57;;;;;;;6.10;3.60;;;9.70;99.90;;;;;;5048656;28;20076;-45
2022/12/29 03:28:32;;;;;;;7.60;3.65;;;9.30;99.90;;;;;;5048917;28;20048;-45
2022/12/29 03:30:59;;;;;;;7.55;3.47;;;9.30;99.90;;;;;;5048981;28;20037;-45
2022/12/29 03:33:28;;;;;;;5.75;3.28;;;9.30;99.90;;;;;;5048459;28;20056;-46
2022/12/29 03:36:01;;;;;;;5.75;3.72;;;9.20;99.90;;;;;;5048571;28;20360;-48
2022/12/29 03:38:52;;;;;;;3.72;1.95;;;9.30;99.90;;;;;;5048680;28;20045;-47
2022/12/29 03:41:24;;;;;;;3.80;2.60;;;9.30;99.90;;;;;;5048675;28;20044;-46
2022/12/29 03:43:49;;;;;;;4.15;2.53;;;9.20;99.90;;;;;;5048622;28;20170;-46
2022/12/29 03:46:15;;;;;;;6.57;3.05;;;9.30;99.90;;;;;;5048769;28;20474;-46
2022/12/29 03:48:41;;;;;;;6.38;2.90;;;9.30;99.90;;;;;;5049376;28;20535;-46
2022/12/29 03:51:06;;;;;;;4.72;2.78;;;9.60;99.90;;;;;;5048992;28;20759;-48
2022/12/29 03:53:32;;;;;;;5.07;2.83;;;9.60;99.90;;;;;;5048532;28;20040;-46
2022/12/29 03:55:57;;;;;;;6.45;2.70;;;9.20;99.90;;;;;;5048189;28;20049;-49
2022/12/29 03:58:23;;;;;;;3.83;2.28;;;9.60;99.90;;;;;;5048425;28;20467;-46
2022/12/29 04:00:49;;;;;;;5.97;2.85;;;9.10;99.90;;;;;;5048074;28;20499;-47
2022/12/29 04:03:14;;;;;;;5.15;2.45;;;9.10;99.90;;;;;;5048347;28;20763;-48
2022/12/29 04:05:40;;;;;;;3.45;2.00;;;9.00;99.90;;;;;;5048492;28;20045;-46
2022/12/29 04:08:06;;;;;;;4.97;2.13;;;9.00;99.90;;;;;;5047897;28;20408;-47
2022/12/29 04:10:31;;;;;;;3.42;2.25;;;9.10;99.90;;;;;;5048052;28;20060;-46
2022/12/29 04:12:57;;;;;;;4.22;2.22;;;9.40;99.90;;;;;;5047683;28;20053;-46
2022/12/29 04:15:24;;;;;;;4.47;2.58;;;9.10;99.90;;;;;;5047559;28;20052;-47
2022/12/29 04:17:49;;;;;;;3.47;1.98;;;9.10;99.90;;;;;;5047083;28;20534;-46
2022/12/29 04:23:00;;;;;;;6.15;1.40;;;9.10;99.90;;;;;;5047613;28;20055;-47
2022/12/29 04:25:26;;;;;;;5.50;0.80;;;9.00;99.90;;;;;;5047745;28;20576;-45
2022/12/29 04:27:52;;;;;;;3.63;0.90;;;8.90;99.90;;;;;;5047186;28;20033;-46
2022/12/29 04:30:18;;;;;;;4.15;0.82;;;8.90;99.90;;;;;;5046869;28;20041;-45
2022/12/29 04:32:43;;;;;;;3.85;0.82;;;8.80;99.90;;;;;;5047316;28;20083;-46
2022/12/29 04:35:09;;;;;;;4.68;0.80;;;9.00;99.90;;;;;;5046924;28;20048;-46
2022/12/29 04:37:34;;;;;;;4.32;1.10;;;8.70;99.90;;;;;;5047447;28;20703;-46
2022/12/29 04:40:00;;;;;;;2.33;0.28;;;8.80;99.90;;;;;;5047370;28;20782;-46
2022/12/29 04:42:26;;;;;;;6.55;0.30;;;8.80;99.90;;;;;;5047084;28;20111;-46
2022/12/29 04:44:51;;;;;;;3.70;0.30;;;8.60;99.90;;;;;;5047019;28;20044;-47
2022/12/29 04:47:17;;;;;;;0.95;0.20;;;8.50;99.90;;;;;;5046676;28;20290;-45
2022/12/29 04:49:43;;;;;;;1.42;0.30;;;8.40;99.90;;;;;;5046758;28;20045;-48
2022/12/29 04:52:08;;;;;;;2.22;0.60;;;8.30;99.90;;;;;;5045417;28;20041;-46
2022/12/29 04:54:34;;;;;;;2.88;0.50;;;8.60;99.90;;;;;;5047213;28;20048;-45
2022/12/29 04:57:00;;;;;;;5.65;0.70;;;8.20;99.90;;;;;;5045913;28;20164;-46
2022/12/29 04:59:26;;;;;;;3.67;0.80;;;8.10;99.90;;;;;;5047199;28;20075;-45
2022/12/29 05:01:51;;;;;;;6.57;1.33;;;8.20;99.90;;;;;;5047008;28;20703;-48
2022/12/29 05:04:17;;;;;;;7.53;1.33;;;8.10;99.90;;;;;;5046596;28;20072;-48
2022/12/29 05:06:43;;;;;;;3.33;1.15;;;8.10;99.90;;;;;;5047014;28;20092;-47
2022/12/29 05:09:08;;;;;;;7.63;1.17;;;8.20;99.90;;;;;;5047037;28;20058;-45
2022/12/29 05:11:34;;;;;;;9.40;2.08;;;8.50;99.90;;;;;;5047343;28;20041;-46
2022/12/29 05:14:00;;;;;;;6.00;1.20;;;8.80;99.90;;;;;;5046713;28;20107;-45
2022/12/29 05:16:26;;;;;;;5.45;1.77;;;8.70;99.90;;;;;;5046311;28;20479;-46
2022/12/29 05:18:51;;;;;;;5.57;1.30;;;8.10;99.90;;;;;;5046291;28;20044;-46
2022/12/29 05:21:17;;;;;;;4.68;0.80;;;8.10;99.90;;;;;;5046232;28;20060;-47
2022/12/29 05:23:43;;;;;;;6.93;0.70;;;8.40;99.90;;;;;;5046529;28;20045;-47
2022/12/29 05:26:08;;;;;;;13.65;1.30;;;8.00;99.90;;;;;;5046594;28;20041;-46
2022/12/29 05:28:34;;;;;;;9.80;0.90;;;8.00;99.90;;;;;;5046290;28;20048;-46
2022/12/29 05:31:00;;;;;;;7.45;1.45;;;8.60;99.90;;;;;;5046070;28;20052;-47
2022/12/29 05:33:25;;;;;;;11.90;1.95;;;7.90;99.90;;;;;;5045943;28;20040;-48
2022/12/29 05:35:51;;;;;;;10.05;0.90;;;8.00;99.90;;;;;;5046299;28;20045;-47
2022/12/29 05:38:17;;;;;;;15.43;1.75;;;8.20;99.90;;;;;;5046116;28;20047;-45
2022/12/29 05:40:43;;;;;;;8.32;1.60;;;7.90;99.90;;;;;;5046441;28;20049;-46
2022/12/29 05:43:09;;;;;;;7.72;1.23;;;7.80;99.90;;;;;;5046027;28;20093;-45
2022/12/29 05:45:36;;;;;;;15.15;1.52;;;8.70;99.90;;;;;;5046081;28;20076;-45
2022/12/29 05:48:02;;;;;;;8.50;1.30;;;7.90;99.90;;;;;;5046135;28;20344;-45
2022/12/29 05:50:28;;;;;;;7.50;0.95;;;7.80;99.90;;;;;;5045993;28;20075;-46
2022/12/29 05:52:54;;;;;;;7.90;1.10;;;7.90;99.90;;;;;;5045797;28;20068;-46
2022/12/29 05:55:20;;;;;;;7.60;0.93;;;7.70;99.90;;;;;;5045985;28;20111;-46
2022/12/29 05:57:45;;;;;;;8.00;1.67;;;7.70;99.90;;;;;;5046342;28;20053;-47
2022/12/29 06:00:12;;;;;;;11.02;1.00;;;7.90;99.90;;;;;;5046319;28;20394;-45
2022/12/29 06:02:37;;;;;;;13.40;1.10;;;7.70;99.90;;;;;;5046486;28;20344;-45
2022/12/29 06:05:03;;;;;;;8.20;0.95;;;7.70;99.90;;;;;;5046445;28;20056;-46
2022/12/29 06:07:29;;;;;;;4.47;1.15;;;7.70;99.90;;;;;;5046214;28;20071;-46
2022/12/29 06:09:54;;;;;;;4.97;1.15;;;8.00;99.90;;;;;;5045996;28;20053;-45
2022/12/29 06:12:20;;;;;;;3.55;1.02;;;7.80;99.90;;;;;;5045620;28;20534;-45
2022/12/29 06:14:46;;;;;;;7.05;1.00;;;7.70;99.90;;;;;;5045539;28;20045;-46
2022/12/29 06:17:11;;;;;;;8.15;1.67;;;7.80;99.90;;;;;;5045460;28;20041;-46
2022/12/29 06:19:37;;;;;;;8.20;2.58;;;7.70;99.90;;;;;;5045490;28;20041;-46
2022/12/29 06:22:03;;;;;;;10.95;1.05;;;7.80;99.90;;;;;;5046237;28;20049;-47
2022/12/29 06:24:29;;;;;;;7.35;1.52;;;8.70;99.90;;;;;;5045871;28;20041;-45
2022/12/29 06:26:54;;;;;;;5.25;1.52;;;7.70;99.90;;;;;;5046220;28;20052;-45
2022/12/29 06:29:20;;;;;;;5.72;0.95;;;7.80;99.90;;;;;;5044811;28;20061;-46
2022/12/29 06:31:46;;;;;;;4.38;0.80;;;7.80;99.90;;;;;;5046194;28;20116;-46
2022/12/29 06:34:12;;;;;;;11.00;1.30;;;7.90;99.90;;;;;;5045820;28;20037;-47
2022/12/29 06:36:38;;;;;;;8.18;1.20;;;7.90;99.90;;;;;;5046197;28;20048;-45
2022/12/29 06:39:04;;;;;;;12.57;1.00;;;7.90;99.90;;;;;;5046941;28;20045;-46
2022/12/29 06:41:30;;;;;;;11.65;1.15;;;7.70;99.90;;;;;;5049713;28;20566;-45
2022/12/29 06:43:56;;;;;;;18.50;2.63;;;7.70;99.90;;;;;;5049605;28;20083;-46
2022/12/29 06:46:21;;;;;;;8.40;0.95;;;8.30;99.90;;;;;;5049505;28;20037;-48
2022/12/29 06:48:47;;;;;;;7.38;1.88;;;7.70;99.90;;;;;;5049715;28;20044;-47
2022/12/29 06:51:13;;;;;;;8.35;0.95;;;7.90;99.90;;;;;;5049887;28;20047;-46
2022/12/29 06:53:38;;;;;;;6.57;0.90;;;8.00;99.90;;;;;;5049646;28;20029;-47
2022/12/29 06:56:04;;;;;;;10.85;1.15;;;7.80;99.90;;;;;;5049825;28;20036;-47
2022/12/29 06:58:30;;;;;;;12.23;1.00;;;7.80;99.90;;;;;;5049354;28;20076;-45
2022/12/29 07:00:56;;;;;;;12.75;1.88;;;7.90;99.90;;;;;;5049476;28;20044;-46
2022/12/29 07:03:21;;;;;;;8.57;1.08;;;7.90;99.90;;;;;;5049658;28;20045;-46
2022/12/29 07:05:47;;;;;;;8.40;0.70;;;8.20;99.90;;;;;;5048805;28;20119;-46
2022/12/29 07:08:13;;;;;;;14.63;1.35;;;7.80;99.90;;;;;;5049276;28;20044;-47
2022/12/29 07:10:39;;;;;;;4.40;0.45;;;7.60;99.90;;;;;;5049287;28;20041;-46
2022/12/29 07:13:09;;;;;;;11.23;1.10;;;7.80;99.90;;;;;;5048837;28;20080;-47
2022/12/29 07:15:36;;;;;;;10.07;1.65;;;8.10;99.90;;;;;;5048758;28;20152;-45
2022/12/29 07:18:03;;;;;;;9.82;1.90;;;7.80;99.90;;;;;;5049071;28;20037;-46
2022/12/29 07:20:29;;;;;;;6.60;1.23;;;7.70;99.90;;;;;;5048721;28;20044;-46
2022/12/29 07:22:55;;;;;;;14.55;1.77;;;7.60;99.90;;;;;;5048994;28;20076;-48
2022/12/29 07:25:21;;;;;;;8.20;1.38;;;7.70;99.90;;;;;;5048339;28;20532;-46
2022/12/29 07:27:48;;;;;;;10.95;0.95;;;7.60;99.90;;;;;;5048132;28;20682;-46
2022/12/29 07:30:14;;;;;;;10.98;1.23;;;8.60;99.90;;;;;;5048712;28;20119;-46
2022/12/29 07:32:39;;;;;;;14.18;1.55;;;7.70;99.90;;;;;;5048252;28;20529;-48
2022/12/29 07:35:06;;;;;;;8.85;1.05;;;7.70;99.90;;;;;;5048011;28;20047;-46
2022/12/29 07:37:31;;;;;;;9.13;1.42;;;7.70;99.90;;;;;;5048128;28;20044;-46
2022/12/29 07:39:57;;;;;;;14.15;2.05;;;7.90;99.90;;;;;;5048115;28;20097;-47
2022/12/29 07:42:23;;;;;;;7.38;1.02;;;7.60;99.90;;;;;;5048604;28;20052;-46
2022/12/29 07:44:48;;;;;;;10.18;1.02;;;7.60;99.90;;;;;;5048540;28;20159;-46
2022/12/29 07:47:14;;;;;;;10.90;1.52;;;7.80;99.90;;;;;;5048691;28;20049;-47
2022/12/29 07:49:40;;;;;;;10.77;1.48;;;8.70;99.90;;;;;;5048344;28;20043;-45
2022/12/29 07:52:05;;;;;;;9.45;1.25;;;7.90;99.90;;;;;;5046937;28;20084;-46
2022/12/29 07:54:31;;;;;;;11.60;0.80;;;8.00;99.90;;;;;;5047995;28;20037;-47
2022/12/29 07:56:59;;;;;;;6.90;0.98;;;8.90;99.90;;;;;;5048001;28;20047;-45
2022/12/29 07:59:25;;;;;;;8.32;1.45;;;7.90;99.90;;;;;;5048398;28;20087;-48
2022/12/29 08:01:51;;;;;;;11.07;0.80;;;8.00;99.90;;;;;;5048170;28;20049;-45
2022/12/29 08:04:17;;;;;;;9.10;1.27;;;8.20;99.90;;;;;;5048067;28;20390;-45
2022/12/29 08:06:45;;;;;;;12.18;1.00;;;7.90;99.90;;;;;;5048172;28;20535;-46
2022/12/29 08:09:11;;;;;;;7.07;1.70;;;7.90;99.90;;;;;;5048145;28;20036;-46
2022/12/29 08:11:36;;;;;;;5.95;1.13;;;8.30;99.90;;;;;;5048303;28;20440;-48
2022/12/29 08:14:03;;;;;;;12.55;1.20;;;7.90;99.90;;;;;;5047529;28;20053;-46
2022/12/29 08:16:28;;;;;;;9.85;1.17;;;7.90;99.90;;;;;;5046309;28;20407;-46
2022/12/29 08:18:54;;;;;;;12.50;1.40;;;8.10;99.90;;;;;;5047660;28;20045;-46
2022/12/29 08:21:20;;;;;;;11.68;1.27;;;7.80;99.90;;;;;;5047949;28;20360;-46
2022/12/29 08:23:45;;;;;;;11.50;1.40;;;7.80;99.90;;;;;;5047922;28;20153;-45
2022/12/29 08:26:11;;;;;;;10.50;0.95;;;7.90;99.90;;;;;;5047745;28;20099;-46
2022/12/29 08:28:37;;;;;;;9.38;1.02;;;7.90;99.90;;;;;;5048107;28;20044;-45
2022/12/29 08:31:02;;;;;;;8.95;1.50;;;7.80;99.90;;;;;;5047629;28;20033;-46
2022/12/29 08:33:29;;;;;;;13.00;1.52;;;7.80;99.90;;;;;;5047150;28;20045;-45
2022/12/29 08:36:02;;;;;;;22.33;1.40;;;8.50;99.90;;;;;;5047343;28;20041;-45
2022/12/29 08:38:28;;;;;;;14.98;1.48;;;7.90;99.90;;;;;;5047410;28;20043;-48
2022/12/29 08:40:55;;;;;;;13.02;1.20;;;7.90;99.90;;;;;;5047523;28;20037;-44
2022/12/29 08:43:20;;;;;;;21.30;1.50;;;8.00;99.90;;;;;;5046616;28;20056;-47
2022/12/29 08:45:46;;;;;;;16.08;1.55;;;8.70;99.90;;;;;;5046980;28;20550;-45
2022/12/29 08:48:12;;;;;;;15.20;1.02;;;8.00;99.90;;;;;;5045504;28;20407;-46
2022/12/29 08:50:37;;;;;;;18.67;1.85;;;8.30;99.90;;;;;;5047013;28;20648;-45
2022/12/29 08:53:03;;;;;;;17.38;1.33;;;8.20;99.90;;;;;;5046687;28;20041;-46
2022/12/29 08:55:29;;;;;;;10.50;1.45;;;8.20;99.90;;;;;;5046919;28;20040;-48
2022/12/29 08:57:54;;;;;;;17.23;1.48;;;8.70;99.90;;;;;;5047115;28;20048;-46
2022/12/29 09:00:20;;;;;;;10.20;1.08;;;8.30;99.90;;;;;;5047214;28;20044;-48
2022/12/29 09:02:46;;;;;;;14.30;1.65;;;8.40;99.90;;;;;;5046694;28;20056;-44
2022/12/29 09:05:12;;;;;;;17.17;2.45;;;8.50;99.90;;;;;;5047059;28;20051;-46
2022/12/29 09:07:38;;;;;;;10.95;1.60;;;8.50;99.90;;;;;;5027824;28;20048;-45
2022/12/29 09:10:04;;;;;;;13.57;2.30;;;9.50;99.90;;;;;;5044357;28;20044;-46
2022/12/29 09:12:30;;;;;;;11.30;0.95;;;8.70;99.90;;;;;;5045136;28;20037;-46
2022/12/29 09:14:55;;;;;;;12.68;1.65;;;8.70;99.90;;;;;;5044331;28;20063;-47
2022/12/29 09:20:06;;;;;;;11.57;1.73;;;8.80;99.90;;;;;;5044877;28;20060;-46
2022/12/29 09:22:32;;;;;;;11.00;1.23;;;8.80;99.90;;;;;;5044584;28;20566;-47
2022/12/29 09:24:57;;;;;;;16.60;2.40;;;9.00;99.90;;;;;;5044702;28;20052;-48
2022/12/29 09:27:23;;;;;;;10.52;1.13;;;8.70;99.90;;;;;;5045075;28;20037;-52
2022/12/29 09:29:49;;;;;;;9.48;1.27;;;8.70;99.90;;;;;;5044748;28;20087;-51
2022/12/29 09:32:14;;;;;;;11.45;1.05;;;8.60;99.90;;;;;;5044860;28;20045;-47
2022/12/29 09:34:40;;;;;;;11.05;1.55;;;8.70;99.90;;;;;;5045072;28;20049;-49
2022/12/29 09:37:06;;;;;;;12.55;0.90;;;8.50;99.90;;;;;;5044214;28;20130;-48
2022/12/29 09:39:31;;;;;;;12.02;0.95;;;8.50;99.90;;;;;;5045550;28;20064;-49
2022/12/29 09:42:02;;;;;;;10.25;1.00;;;8.50;99.90;;;;;;5045163;28;20047;-48
2022/12/29 09:44:48;;;;;;;10.23;0.88;;;8.80;99.90;;;;;;5045871;28;20041;-49
2022/12/29 09:47:17;;;;;;;12.50;1.52;;;8.40;99.90;;;;;;5045072;28;20056;-48
2022/12/29 09:49:52;;;;;;;8.30;1.05;;;8.40;99.90;;;;;;5045110;28;20108;-47
2022/12/29 09:52:31;;;;;;;10.88;1.00;;;8.50;99.90;;;;;;5043811;28;20052;-48
2022/12/29 09:54:58;;;;;;;10.15;1.17;;;8.50;99.90;;;;;;5044887;28;20041;-54
2022/12/29 09:57:29;;;;;;;8.52;0.95;;;8.50;99.90;;;;;;5045614;28;20104;-53
2022/12/29 10:00:16;;;;;;;11.13;1.17;;;8.90;99.90;;;;;;5045001;28;20477;-52
2022/12/29 10:03:19;;;;;;;9.70;0.82;;;8.60;99.90;;;;;;5043350;28;20043;-53
2022/12/29 10:05:59;;;;;;;4.25;0.82;;;8.50;99.90;;;;;;5044979;28;20136;-50
2022/12/29 10:08:47;;;;;;;12.63;1.63;;;8.50;99.90;;;;;;5018898;28;20808;-51
2022/12/29 10:11:34;;;;;;;8.20;1.08;;;8.50;99.90;;;;;;5044939;28;20114;-50
2022/12/29 10:14:20;;;;;;;11.43;1.02;;;8.50;99.90;;;;;;5045457;28;20136;-54
2022/12/29 10:16:46;;;;;;;6.22;1.33;;;8.40;99.90;;;;;;5048617;28;20057;-52
2022/12/29 10:19:20;;;;;;;7.43;0.95;;;8.50;99.90;;;;;;5048610;28;20055;-52
2022/12/29 10:22:04;;;;;;;9.70;1.30;;;8.40;99.90;;;;;;5048453;28;20047;-50
2022/12/29 10:24:32;;;;;;;10.88;1.85;;;8.30;99.90;;;;;;5048655;28;20052;-49
2022/12/29 10:26:59;;;;;;;11.75;1.38;;;8.30;99.90;;;;;;5046486;28;20048;-48
2022/12/29 10:29:33;;;;;;;12.63;1.73;;;8.20;99.90;;;;;;5045380;28;20133;-54
2022/12/29 10:32:09;;;;;;;11.35;1.55;;;8.10;99.90;;;;;;5046678;28;20069;-55
2022/12/29 10:34:40;;;;;;;14.38;1.33;;;8.10;99.90;;;;;;5047584;28;20045;-55
2022/12/29 10:37:17;;;;;;;13.10;2.05;;;8.30;99.90;;;;;;5047157;28;20051;-54
2022/12/29 10:39:47;;;;;;;18.95;1.55;;;8.10;99.90;;;;;;5047174;28;20391;-56
2022/12/29 10:42:40;;;;;;;9.82;1.65;;;7.80;99.90;;;;;;5047175;28;20040;-55
2022/12/29 10:45:13;;;;;;;10.10;1.20;;;8.00;99.90;;;;;;5048118;28;20052;-47
2022/12/29 10:47:50;;;;;;;15.07;2.63;;;8.30;99.90;;;;;;5045617;28;20086;-46
2022/12/29 10:50:15;;;;;;;8.77;1.05;;;8.00;99.90;;;;;;5047202;28;20049;-46
2022/12/29 10:52:41;;;;;;;12.35;1.10;;;8.00;99.90;;;;;;5047020;28;20052;-48
2022/12/29 10:55:18;;;;;;;9.05;1.05;;;8.00;99.90;;;;;;5046788;28;20045;-48
2022/12/29 10:57:46;;;;;;;9.82;1.08;;;8.20;99.90;;;;;;5046876;28;20037;-53
2022/12/29 11:00:20;;;;;;;9.70;1.85;;;8.10;99.90;;;;;;5046620;28;20049;-50
2022/12/29 11:03:11;;;;;;;13.70;1.77;;;8.10;99.90;;;;;;5046717;28;20045;-50
2022/12/29 11:05:43;;;;;;;12.10;1.52;;;8.10;99.90;;;;;;5037118;28;20048;-52
2022/12/29 11:08:14;;;;;;;15.25;2.30;;;8.10;99.90;;;;;;5026602;28;20053;-53
2022/12/29 11:10:44;;;;;;;13.35;1.40;;;8.00;99.90;;;;;;5044648;28;20072;-49
2022/12/29 11:13:25;;;;;;;11.93;1.58;;;8.00;99.90;;;;;;5046120;28;20060;-51
2022/12/29 11:15:52;;;;;;;10.15;1.58;;;8.00;99.90;;;;;;5046679;28;20073;-50
2022/12/29 11:18:39;;;;;;;8.55;1.35;;;8.10;99.90;;;;;;5046008;28;20069;-56
2022/12/29 11:21:32;;;;;;;11.30;1.27;;;8.10;99.90;;;;;;5045501;28;20568;-47
2022/12/29 11:24:01;;;;;;;9.40;1.58;;;8.00;99.90;;;;;;5046930;28;20063;-43
2022/12/29 11:26:28;;;;;;;14.93;1.35;;;7.90;99.90;;;;;;5045993;28;20045;-48
2022/12/29 11:29:22;;;;;;;8.40;1.35;;;7.90;99.90;;;;;;5047079;28;20044;-49
2022/12/29 11:31:58;;;;;;;18.02;1.58;;;8.00;99.90;;;;;;5050430;28;20351;-60
2022/12/29 11:34:33;;;;;;;12.05;1.73;;;8.50;99.90;;;;;;5049975;28;20045;-59
2022/12/29 11:37:10;;;;;;;12.45;1.50;;;8.00;99.90;;;;;;5048213;28;20041;-60
2022/12/29 11:39:43;;;;;;;9.70;0.80;;;8.00;99.90;;;;;;5047622;28;20099;-60
2022/12/29 11:42:18;;;;;;;7.40;0.73;;;7.90;99.90;;;;;;5047193;28;20041;-58
2022/12/29 11:44:49;;;;;;;10.05;1.25;;;7.90;99.90;;;;;;5046578;28;20122;-59
2022/12/29 11:47:29;;;;;;;7.43;0.45;;;7.80;99.90;;;;;;5047504;28;20048;-58
2022/12/29 11:49:59;;;;;;;9.15;2.80;;;7.70;99.90;;;;;;5046750;28;20049;-48
2022/12/29 11:52:29;;;;;;;8.15;0.95;;;8.20;99.90;;;;;;5045590;28;20052;-48
2022/12/29 11:54:56;;;;;;;13.32;2.95;;;7.70;99.90;;;;;;5044565;28;20072;-45
2022/12/29 11:57:25;;;;;;;11.57;1.23;;;7.70;99.90;;;;;;5045732;28;20388;-46
2022/12/29 11:59:59;;;;;;;23.30;2.72;;;8.00;99.90;;;;;;5046282;28;20410;-48
2022/12/29 12:02:41;;;;;;;12.70;2.65;;;8.20;99.90;;;;;;5045407;28;20041;-45
2022/12/29 12:05:38;;;;;;;16.42;3.08;;;8.40;99.90;;;;;;5044084;28;20053;-47
2022/12/29 12:08:12;;;;;;;16.38;2.20;;;8.40;99.90;;;;;;5024299;28;20461;-49
2022/12/29 12:11:07;;;;;;;17.65;3.05;;;8.40;99.90;;;;;;5045365;28;20079;-47
2022/12/29 12:14:11;;;;;;;21.45;3.53;;;8.40;99.90;;;;;;5047263;28;20059;-48
2022/12/29 12:16:43;;;;;;;12.50;2.53;;;8.30;99.90;;;;;;5048900;28;20130;-48
2022/12/29 12:19:14;;;;;;;18.60;2.07;;;8.20;99.90;;;;;;5047870;28;20225;-48
2022/12/29 12:21:44;;;;;;;18.80;2.83;;;8.20;99.90;;;;;;5047784;28;20086;-52
2022/12/29 12:24:34;;;;;;;15.52;1.77;;;8.40;99.90;;;;;;5047204;28;20055;-53
2022/12/29 12:27:03;;;;;;;19.73;2.33;;;8.70;99.90;;;;;;5047310;28;20450;-50
2022/12/29 12:29:35;;;;;;;18.85;3.88;;;8.80;99.90;;;;;;5046683;28;20664;-53
2022/12/29 12:32:34;;;;;;;19.75;2.58;;;8.80;99.90;;;;;;5046785;28;20467;-54
2022/12/29 12:35:01;;;;;;;21.98;2.00;;;8.70;99.90;;;;;;5046186;28;20094;-51
2022/12/29 12:38:04;;;;;;;20.38;3.17;;;8.70;99.90;;;;;;5046084;28;20489;-53
2022/12/29 12:40:41;;;;;;;14.65;2.35;;;8.80;99.90;;;;;;5046635;28;20118;-56
2022/12/29 12:43:40;;;;;;;14.75;2.35;;;8.80;99.90;;;;;;5046476;28;20040;-55
2022/12/29 12:46:40;;;;;;;19.48;2.35;;;9.00;99.90;;;;;;5045237;28;20383;-53
2022/12/29 12:49:46;;;;;;;18.05;2.20;;;9.10;99.90;;;;;;5046720;28;20049;-52
2022/12/29 12:52:42;;;;;;;20.40;2.97;;;7.50;99.90;;;;;;5046262;28;20040;-49
2022/12/29 12:55:32;;;;;;;19.70;2.13;;;9.10;99.90;;;;;;5046505;28;20072;-46
2022/12/29 12:58:18;;;;;;;17.98;2.55;;;8.90;99.90;;;;;;5046473;28;20057;-43
2022/12/29 13:01:08;;;;;;;18.05;1.58;;;8.60;99.90;;;;;;5034851;28;20564;-46
2022/12/29 13:03:43;;;;;;;14.23;2.95;;;8.70;99.90;;;;;;5046522;28;20125;-47
2022/12/29 13:06:46;;;;;;;17.48;1.42;;;8.80;99.90;;;;;;5045639;28;20048;-47
2022/12/29 13:09:36;;;;;;;17.90;2.90;;;8.80;99.90;;;;;;5046377;28;20047;-45
2022/12/29 13:12:17;;;;;;;19.45;1.88;;;8.70;99.90;;;;;;5046580;28;20475;-45
2022/12/29 13:14:42;;;;;;;13.77;1.17;;;8.70;99.90;;;;;;5046391;28;20052;-45
2022/12/29 13:17:37;;;;;;;18.73;1.90;;;9.10;99.90;;;;;;5046575;28;20044;-47
2022/12/29 13:20:21;;;;;;;13.65;1.40;;;8.60;99.90;;;;;;5026998;28;20052;-47
2022/12/29 13:23:08;;;;;;;15.10;2.38;;;8.60;99.90;;;;;;5046756;28;20048;-45
2022/12/29 13:25:51;;;;;;;15.25;1.65;;;8.50;99.90;;;;;;5046615;28;20103;-45
2022/12/29 13:28:23;;;;;;;20.23;1.92;;;8.40;99.90;;;;;;5045482;28;20048;-46
2022/12/29 13:31:04;;;;;;;19.70;2.50;;;8.80;99.90;;;;;;5045993;28;20044;-46
2022/12/29 13:33:48;;;;;;;16.73;2.30;;;8.40;99.90;;;;;;5046319;28;20440;-46
2022/12/29 13:36:45;;;;;;;18.38;2.58;;;7.40;99.90;;;;;;5045266;28;20125;-48
2022/12/29 13:39:21;;;;;;;13.13;1.95;;;8.60;99.90;;;;;;5040685;28;20127;-39
2022/12/29 13:41:51;;;;;;;16.73;1.90;;;8.30;99.90;;;;;;5043819;28;20032;-45
2022/12/29 13:44:34;;;;;;;13.32;1.30;;;8.60;99.90;;;;;;5045860;28;20048;-48
2022/12/29 13:47:06;;;;;;;12.57;0.80;;;8.50;99.90;;;;;;5046125;28;20071;-46
2022/12/29 13:49:33;;;;;;;17.40;1.65;;;8.40;99.90;;;;;;5046891;28;20036;-43
2022/12/29 13:52:10;;;;;;;17.80;2.22;;;8.40;99.90;;;;;;5049768;28;20049;-44
2022/12/29 13:55:08;;;;;;;16.08;1.88;;;8.70;99.90;;;;;;5049446;28;20037;-44